sensor_id;sensor_type;location;lat;lon;timestamp;temperature;humidity
11569;DHT22;5840;46.894;15.542;2022-08-03T00:00:13;19.00;99.90
11569;DHT22;5840;46.894;15.542;2022-08-03T00:02:41;18.90;99.90
11569;DHT22;5840;46.894;15.542;2022-08-03T00:05:08;18.90;99.90
11569;DHT22;5840;46.894;15.542;2022-08-03T00:07:36;18.90;99.90
11569;DHT22;5840;46.894;15.542;2022-08-03T00:10:05;18.90;99.90
11569;DHT22;5840;46.894;15.542;2022-08-03T00:12:32;18.90;99.90
11569;DHT22;5840;46.894;15.542;2022-08-03T00:15:00;18.80;99.90
11569;DHT22;5840;46.894;15.542;2022-08-03T00:17:27;18.80;99.90
11569;DHT22;5840;46.894;15.542;2022-08-03T00:19:54;18.80;99.90
11569;DHT22;5840;46.894;15.542;2022-08-03T00:22:21;18.80;99.90
11569;DHT22;5840;46.894;15.542;2022-08-03T00:24:49;18.80;99.90
11569;DHT22;5840;46.894;15.542;2022-08-03T00:27:16;18.80;99.90
11569;DHT22;5840;46.894;15.542;2022-08-03T00:29:43;18.80;99.90
11569;DHT22;5840;46.894;15.542;2022-08-03T00:32:10;18.70;99.90
11569;DHT22;5840;46.894;15.542;2022-08-03T00:34:37;18.70;99.90
11569;DHT22;5840;46.894;15.542;2022-08-03T00:37:04;18.60;99.90
11569;DHT22;5840;46.894;15.542;2022-08-03T00:39:31;18.60;99.90
11569;DHT22;5840;46.894;15.542;2022-08-03T00:42:02;18.60;99.90
11569;DHT22;5840;46.894;15.542;2022-08-03T00:44:29;18.60;99.90
11569;DHT22;5840;46.894;15.542;2022-08-03T00:46:56;18.60;99.90
11569;DHT22;5840;46.894;15.542;2022-08-03T00:49:23;18.60;99.90
11569;DHT22;5840;46.894;15.542;2022-08-03T00:51:50;18.50;99.90
11569;DHT22;5840;46.894;15.542;2022-08-03T00:54:18;18.50;99.90
11569;DHT22;5840;46.894;15.542;2022-08-03T00:56:45;18.50;99.90
11569;DHT22;5840;46.894;15.542;2022-08-03T00:59:15;18.50;99.90
11569;DHT22;5840;46.894;15.542;2022-08-03T01:01:42;18.50;99.90
11569;DHT22;5840;46.894;15.542;2022-08-03T01:04:09;18.50;99.90
11569;DHT22;5840;46.894;15.542;2022-08-03T01:06:42;18.40;99.90
11569;DHT22;5840;46.894;15.542;2022-08-03T01:09:18;18.40;99.90
11569;DHT22;5840;46.894;15.542;2022-08-03T01:11:52;18.40;99.90
11569;DHT22;5840;46.894;15.542;2022-08-03T01:14:26;18.40;99.90
11569;DHT22;5840;46.894;15.542;2022-08-03T01:16:57;18.40;99.90
11569;DHT22;5840;46.894;15.542;2022-08-03T01:19:40;18.30;99.90
11569;DHT22;5840;46.894;15.542;2022-08-03T01:22:22;18.30;99.90
11569;DHT22;5840;46.894;15.542;2022-08-03T01:24:56;18.20;99.90
11569;DHT22;5840;46.894;15.542;2022-08-03T01:27:30;18.20;99.90
11569;DHT22;5840;46.894;15.542;2022-08-03T01:30:04;18.20;99.90
11569;DHT22;5840;46.894;15.542;2022-08-03T01:32:39;18.20;99.90
11569;DHT22;5840;46.894;15.542;2022-08-03T01:35:09;18.20;99.90
11569;DHT22;5840;46.894;15.542;2022-08-03T01:37:42;18.20;99.90
11569;DHT22;5840;46.894;15.542;2022-08-03T01:40:12;18.20;99.90
11569;DHT22;5840;46.894;15.542;2022-08-03T01:42:41;18.20;99.90
11569;DHT22;5840;46.894;15.542;2022-08-03T01:45:13;18.20;99.90
11569;DHT22;5840;46.894;15.542;2022-08-03T01:47:44;18.20;99.90
11569;DHT22;5840;46.894;15.542;2022-08-03T01:50:12;18.20;99.90
11569;DHT22;5840;46.894;15.542;2022-08-03T01:52:41;18.20;99.90
11569;DHT22;5840;46.894;15.542;2022-08-03T01:55:11;18.20;99.90
11569;DHT22;5840;46.894;15.542;2022-08-03T01:57:39;18.20;99.90
11569;DHT22;5840;46.894;15.542;2022-08-03T02:00:11;18.20;99.90
11569;DHT22;5840;46.894;15.542;2022-08-03T02:02:40;18.20;99.90
11569;DHT22;5840;46.894;15.542;2022-08-03T02:05:09;18.20;99.90
11569;DHT22;5840;46.894;15.542;2022-08-03T02:07:39;18.20;99.90
11569;DHT22;5840;46.894;15.542;2022-08-03T02:10:10;18.20;99.90
11569;DHT22;5840;46.894;15.542;2022-08-03T02:12:39;18.10;99.90
11569;DHT22;5840;46.894;15.542;2022-08-03T02:15:07;18.10;99.90
11569;DHT22;5840;46.894;15.542;2022-08-03T02:17:36;18.10;99.90
11569;DHT22;5840;46.894;15.542;2022-08-03T02:20:05;18.10;99.90
11569;DHT22;5840;46.894;15.542;2022-08-03T02:22:33;18.00;99.90
11569;DHT22;5840;46.894;15.542;2022-08-03T02:25:01;17.90;99.90
11569;DHT22;5840;46.894;15.542;2022-08-03T02:27:28;17.90;99.90
11569;DHT22;5840;46.894;15.542;2022-08-03T02:30:07;17.90;99.90
11569;DHT22;5840;46.894;15.542;2022-08-03T02:32:38;17.90;99.90
11569;DHT22;5840;46.894;15.542;2022-08-03T02:35:10;17.80;99.90
11569;DHT22;5840;46.894;15.542;2022-08-03T02:37:43;17.80;99.90
11569;DHT22;5840;46.894;15.542;2022-08-03T02:40:13;17.80;99.90
11569;DHT22;5840;46.894;15.542;2022-08-03T02:42:41;17.80;99.90
11569;DHT22;5840;46.894;15.542;2022-08-03T02:45:11;17.80;99.90
11569;DHT22;5840;46.894;15.542;2022-08-03T02:47:41;17.80;99.90
11569;DHT22;5840;46.894;15.542;2022-08-03T02:50:11;17.70;99.90
11569;DHT22;5840;46.894;15.542;2022-08-03T02:52:39;17.70;99.90
11569;DHT22;5840;46.894;15.542;2022-08-03T02:55:09;17.70;99.90
11569;DHT22;5840;46.894;15.542;2022-08-03T02:57:37;17.60;99.90
11569;DHT22;5840;46.894;15.542;2022-08-03T03:00:06;17.60;99.90
11569;DHT22;5840;46.894;15.542;2022-08-03T03:02:34;17.60;99.90
11569;DHT22;5840;46.894;15.542;2022-08-03T03:05:03;17.60;99.90
11569;DHT22;5840;46.894;15.542;2022-08-03T03:07:31;17.60;99.90
11569;DHT22;5840;46.894;15.542;2022-08-03T03:09:58;17.60;99.90
11569;DHT22;5840;46.894;15.542;2022-08-03T03:12:27;17.60;99.90
11569;DHT22;5840;46.894;15.542;2022-08-03T03:14:54;17.60;99.90
11569;DHT22;5840;46.894;15.542;2022-08-03T03:17:22;17.50;99.90
11569;DHT22;5840;46.894;15.542;2022-08-03T03:19:52;17.50;99.90
11569;DHT22;5840;46.894;15.542;2022-08-03T03:22:22;17.50;99.90
11569;DHT22;5840;46.894;15.542;2022-08-03T03:24:50;17.50;99.90
11569;DHT22;5840;46.894;15.542;2022-08-03T03:27:19;17.50;99.90
11569;DHT22;5840;46.894;15.542;2022-08-03T03:29:47;17.40;99.90
11569;DHT22;5840;46.894;15.542;2022-08-03T03:32:14;17.40;99.90
11569;DHT22;5840;46.894;15.542;2022-08-03T03:34:41;17.40;99.90
11569;DHT22;5840;46.894;15.542;2022-08-03T03:37:09;17.30;99.90
11569;DHT22;5840;46.894;15.542;2022-08-03T03:39:37;17.30;99.90
11569;DHT22;5840;46.894;15.542;2022-08-03T03:42:04;17.30;99.90
11569;DHT22;5840;46.894;15.542;2022-08-03T03:44:31;17.20;99.90
11569;DHT22;5840;46.894;15.542;2022-08-03T03:46:58;17.20;99.90
11569;DHT22;5840;46.894;15.542;2022-08-03T03:49:26;17.30;99.90
11569;DHT22;5840;46.894;15.542;2022-08-03T03:51:53;17.30;99.90
11569;DHT22;5840;46.894;15.542;2022-08-03T03:54:20;17.20;99.90
11569;DHT22;5840;46.894;15.542;2022-08-03T03:56:49;17.20;99.90
11569;DHT22;5840;46.894;15.542;2022-08-03T03:59:16;17.20;99.90
11569;DHT22;5840;46.894;15.542;2022-08-03T04:01:43;17.10;99.90
11569;DHT22;5840;46.894;15.542;2022-08-03T04:04:10;17.10;99.90
11569;DHT22;5840;46.894;15.542;2022-08-03T04:06:54;17.10;99.90
11569;DHT22;5840;46.894;15.542;2022-08-03T04:09:40;17.10;99.90
11569;DHT22;5840;46.894;15.542;2022-08-03T04:12:29;17.20;99.90
11569;DHT22;5840;46.894;15.542;2022-08-03T04:14:57;17.20;99.90
11569;DHT22;5840;46.894;15.542;2022-08-03T04:17:26;17.20;99.90
11569;DHT22;5840;46.894;15.542;2022-08-03T04:19:54;17.20;99.90
11569;DHT22;5840;46.894;15.542;2022-08-03T04:22:25;17.20;99.90
11569;DHT22;5840;46.894;15.542;2022-08-03T04:24:57;17.20;99.90
11569;DHT22;5840;46.894;15.542;2022-08-03T04:27:29;17.20;99.90
11569;DHT22;5840;46.894;15.542;2022-08-03T04:29:59;17.20;99.90
11569;DHT22;5840;46.894;15.542;2022-08-03T04:32:28;17.30;99.90
11569;DHT22;5840;46.894;15.542;2022-08-03T04:34:56;17.30;99.90
11569;DHT22;5840;46.894;15.542;2022-08-03T04:37:27;17.40;99.90
11569;DHT22;5840;46.894;15.542;2022-08-03T04:40:01;17.40;99.90
11569;DHT22;5840;46.894;15.542;2022-08-03T04:42:30;17.40;99.90
11569;DHT22;5840;46.894;15.542;2022-08-03T04:44:59;17.50;99.90
11569;DHT22;5840;46.894;15.542;2022-08-03T04:47:26;17.60;99.90
11569;DHT22;5840;46.894;15.542;2022-08-03T04:49:53;17.60;99.90
11569;DHT22;5840;46.894;15.542;2022-08-03T04:52:20;17.60;99.90
11569;DHT22;5840;46.894;15.542;2022-08-03T04:54:47;17.70;99.90
11569;DHT22;5840;46.894;15.542;2022-08-03T04:57:14;17.70;99.90
11569;DHT22;5840;46.894;15.542;2022-08-03T04:59:42;17.70;99.90
11569;DHT22;5840;46.894;15.542;2022-08-03T05:02:09;17.80;99.90
11569;DHT22;5840;46.894;15.542;2022-08-03T05:04:36;17.80;99.90
11569;DHT22;5840;46.894;15.542;2022-08-03T05:07:05;17.90;99.90
11569;DHT22;5840;46.894;15.542;2022-08-03T05:09:32;17.90;99.90
11569;DHT22;5840;46.894;15.542;2022-08-03T05:12:01;18.00;99.90
11569;DHT22;5840;46.894;15.542;2022-08-03T05:14:28;18.10;99.90
11569;DHT22;5840;46.894;15.542;2022-08-03T05:16:56;18.30;99.90
11569;DHT22;5840;46.894;15.542;2022-08-03T05:19:23;18.50;99.90
11569;DHT22;5840;46.894;15.542;2022-08-03T05:21:50;18.60;99.90
11569;DHT22;5840;46.894;15.542;2022-08-03T05:24:17;18.80;99.90
11569;DHT22;5840;46.894;15.542;2022-08-03T05:26:44;18.90;99.90
11569;DHT22;5840;46.894;15.542;2022-08-03T05:29:11;19.00;99.90
11569;DHT22;5840;46.894;15.542;2022-08-03T05:31:38;19.00;99.90
11569;DHT22;5840;46.894;15.542;2022-08-03T05:34:06;19.00;99.90
11569;DHT22;5840;46.894;15.542;2022-08-03T05:36:33;19.00;99.90
11569;DHT22;5840;46.894;15.542;2022-08-03T05:39:00;19.00;99.90
11569;DHT22;5840;46.894;15.542;2022-08-03T05:41:27;19.00;99.90
11569;DHT22;5840;46.894;15.542;2022-08-03T05:43:54;19.00;99.90
11569;DHT22;5840;46.894;15.542;2022-08-03T05:46:22;19.00;99.90
11569;DHT22;5840;46.894;15.542;2022-08-03T05:48:49;19.00;99.90
11569;DHT22;5840;46.894;15.542;2022-08-03T05:51:18;19.00;99.90
11569;DHT22;5840;46.894;15.542;2022-08-03T05:53:45;18.90;99.90
11569;DHT22;5840;46.894;15.542;2022-08-03T05:56:12;18.90;99.90
11569;DHT22;5840;46.894;15.542;2022-08-03T05:58:39;18.90;99.90
11569;DHT22;5840;46.894;15.542;2022-08-03T06:01:06;18.80;99.90
11569;DHT22;5840;46.894;15.542;2022-08-03T06:03:33;18.90;99.90
11569;DHT22;5840;46.894;15.542;2022-08-03T06:05:59;18.90;99.90
11569;DHT22;5840;46.894;15.542;2022-08-03T06:08:28;18.90;99.90
11569;DHT22;5840;46.894;15.542;2022-08-03T06:10:55;18.90;99.90
11569;DHT22;5840;46.894;15.542;2022-08-03T06:13:21;18.90;99.90
11569;DHT22;5840;46.894;15.542;2022-08-03T06:15:48;18.90;99.90
11569;DHT22;5840;46.894;15.542;2022-08-03T06:18:15;19.00;99.90
11569;DHT22;5840;46.894;15.542;2022-08-03T06:20:42;19.10;99.90
11569;DHT22;5840;46.894;15.542;2022-08-03T06:23:09;19.20;99.90
11569;DHT22;5840;46.894;15.542;2022-08-03T06:25:37;19.30;99.90
11569;DHT22;5840;46.894;15.542;2022-08-03T06:28:04;19.50;99.90
11569;DHT22;5840;46.894;15.542;2022-08-03T06:30:31;19.60;99.90
11569;DHT22;5840;46.894;15.542;2022-08-03T06:32:58;19.70;99.90
11569;DHT22;5840;46.894;15.542;2022-08-03T06:35:25;19.80;99.90
11569;DHT22;5840;46.894;15.542;2022-08-03T06:37:53;19.90;99.90
11569;DHT22;5840;46.894;15.542;2022-08-03T06:40:22;20.00;99.90
11569;DHT22;5840;46.894;15.542;2022-08-03T06:42:56;20.00;99.90
11569;DHT22;5840;46.894;15.542;2022-08-03T06:45:23;20.20;99.90
11569;DHT22;5840;46.894;15.542;2022-08-03T06:47:59;20.40;99.90
11569;DHT22;5840;46.894;15.542;2022-08-03T06:50:26;20.60;99.90
11569;DHT22;5840;46.894;15.542;2022-08-03T06:52:53;20.80;99.90
11569;DHT22;5840;46.894;15.542;2022-08-03T06:55:20;20.90;99.90
11569;DHT22;5840;46.894;15.542;2022-08-03T06:57:47;21.10;99.90
11569;DHT22;5840;46.894;15.542;2022-08-03T07:00:16;21.40;99.90
11569;DHT22;5840;46.894;15.542;2022-08-03T07:02:43;21.70;99.90
11569;DHT22;5840;46.894;15.542;2022-08-03T07:05:10;22.00;99.90
11569;DHT22;5840;46.894;15.542;2022-08-03T07:07:38;22.30;99.90
11569;DHT22;5840;46.894;15.542;2022-08-03T07:10:06;22.60;99.90
11569;DHT22;5840;46.894;15.542;2022-08-03T07:12:34;22.80;99.90
11569;DHT22;5840;46.894;15.542;2022-08-03T07:15:02;23.00;99.90
11569;DHT22;5840;46.894;15.542;2022-08-03T07:17:33;23.20;99.90
11569;DHT22;5840;46.894;15.542;2022-08-03T07:20:02;23.50;99.90
11569;DHT22;5840;46.894;15.542;2022-08-03T07:22:30;23.70;99.90
11569;DHT22;5840;46.894;15.542;2022-08-03T07:24:58;23.90;99.90
11569;DHT22;5840;46.894;15.542;2022-08-03T07:27:25;24.00;99.90
11569;DHT22;5840;46.894;15.542;2022-08-03T07:29:53;24.10;99.90
11569;DHT22;5840;46.894;15.542;2022-08-03T07:32:20;24.30;99.90
11569;DHT22;5840;46.894;15.542;2022-08-03T07:34:48;24.50;99.90
11569;DHT22;5840;46.894;15.542;2022-08-03T07:37:15;24.60;99.90
11569;DHT22;5840;46.894;15.542;2022-08-03T07:39:42;24.80;99.90
11569;DHT22;5840;46.894;15.542;2022-08-03T07:42:09;24.90;99.90
11569;DHT22;5840;46.894;15.542;2022-08-03T07:44:36;25.00;99.90
11569;DHT22;5840;46.894;15.542;2022-08-03T07:47:03;25.20;99.90
11569;DHT22;5840;46.894;15.542;2022-08-03T07:49:30;25.30;99.90
11569;DHT22;5840;46.894;15.542;2022-08-03T07:51:59;25.50;99.90
11569;DHT22;5840;46.894;15.542;2022-08-03T07:54:43;25.70;99.90
11569;DHT22;5840;46.894;15.542;2022-08-03T07:57:10;25.70;99.90
11569;DHT22;5840;46.894;15.542;2022-08-03T07:59:37;25.90;99.90
11569;DHT22;5840;46.894;15.542;2022-08-03T08:02:05;25.90;99.90
11569;DHT22;5840;46.894;15.542;2022-08-03T08:04:32;26.10;99.90
11569;DHT22;5840;46.894;15.542;2022-08-03T08:07:01;26.20;99.90
11569;DHT22;5840;46.894;15.542;2022-08-03T08:09:28;26.20;99.90
11569;DHT22;5840;46.894;15.542;2022-08-03T08:11:55;26.20;99.90
11569;DHT22;5840;46.894;15.542;2022-08-03T08:14:22;26.40;99.90
11569;DHT22;5840;46.894;15.542;2022-08-03T08:16:49;26.60;99.90
11569;DHT22;5840;46.894;15.542;2022-08-03T08:19:16;26.80;99.90
11569;DHT22;5840;46.894;15.542;2022-08-03T08:21:44;26.90;99.90
11569;DHT22;5840;46.894;15.542;2022-08-03T08:24:12;27.10;99.90
11569;DHT22;5840;46.894;15.542;2022-08-03T08:26:39;27.30;99.90
11569;DHT22;5840;46.894;15.542;2022-08-03T08:29:06;27.50;99.90
11569;DHT22;5840;46.894;15.542;2022-08-03T08:31:33;27.50;99.90
11569;DHT22;5840;46.894;15.542;2022-08-03T08:34:00;27.60;99.90
11569;DHT22;5840;46.894;15.542;2022-08-03T08:36:30;27.50;99.90
11569;DHT22;5840;46.894;15.542;2022-08-03T08:38:58;27.70;99.90
11569;DHT22;5840;46.894;15.542;2022-08-03T08:41:27;27.90;99.90
11569;DHT22;5840;46.894;15.542;2022-08-03T08:43:54;28.00;99.90
11569;DHT22;5840;46.894;15.542;2022-08-03T08:46:21;28.00;99.50
11569;DHT22;5840;46.894;15.542;2022-08-03T08:48:48;28.10;98.90
11569;DHT22;5840;46.894;15.542;2022-08-03T08:51:19;28.20;99.60
11569;DHT22;5840;46.894;15.542;2022-08-03T08:53:50;28.30;99.40
11569;DHT22;5840;46.894;15.542;2022-08-03T08:56:17;28.40;98.50
11569;DHT22;5840;46.894;15.542;2022-08-03T08:58:52;28.40;98.50
11569;DHT22;5840;46.894;15.542;2022-08-03T09:01:20;28.50;98.90
11569;DHT22;5840;46.894;15.542;2022-08-03T09:03:47;28.60;98.20
11569;DHT22;5840;46.894;15.542;2022-08-03T09:06:14;28.60;97.50
11569;DHT22;5840;46.894;15.542;2022-08-03T09:08:42;28.90;99.40
11569;DHT22;5840;46.894;15.542;2022-08-03T09:11:09;29.10;98.80
11569;DHT22;5840;46.894;15.542;2022-08-03T09:13:36;29.20;98.40
11569;DHT22;5840;46.894;15.542;2022-08-03T09:16:12;29.30;96.90
11569;DHT22;5840;46.894;15.542;2022-08-03T09:18:39;29.40;97.90
11569;DHT22;5840;46.894;15.542;2022-08-03T09:21:19;29.40;98.40
11569;DHT22;5840;46.894;15.542;2022-08-03T09:23:47;29.60;99.00
11569;DHT22;5840;46.894;15.542;2022-08-03T09:26:22;29.80;96.00
11569;DHT22;5840;46.894;15.542;2022-08-03T09:28:57;29.90;95.10
11569;DHT22;5840;46.894;15.542;2022-08-03T09:31:32;29.90;96.10
11569;DHT22;5840;46.894;15.542;2022-08-03T09:34:01;29.80;93.30
11569;DHT22;5840;46.894;15.542;2022-08-03T09:36:39;29.90;95.20
11569;DHT22;5840;46.894;15.542;2022-08-03T09:39:09;30.00;94.50
11569;DHT22;5840;46.894;15.542;2022-08-03T09:41:37;30.10;94.50
11569;DHT22;5840;46.894;15.542;2022-08-03T09:44:05;30.10;94.90
11569;DHT22;5840;46.894;15.542;2022-08-03T09:46:47;30.20;93.00
11569;DHT22;5840;46.894;15.542;2022-08-03T09:49:15;30.30;94.90
11569;DHT22;5840;46.894;15.542;2022-08-03T09:51:42;30.40;94.10
11569;DHT22;5840;46.894;15.542;2022-08-03T09:54:10;30.50;94.20
11569;DHT22;5840;46.894;15.542;2022-08-03T09:56:38;30.60;94.40
11569;DHT22;5840;46.894;15.542;2022-08-03T09:59:05;30.60;92.50
11569;DHT22;5840;46.894;15.542;2022-08-03T10:01:33;30.70;93.10
11569;DHT22;5840;46.894;15.542;2022-08-03T10:04:02;30.70;92.20
11569;DHT22;5840;46.894;15.542;2022-08-03T10:06:29;30.70;90.60
11569;DHT22;5840;46.894;15.542;2022-08-03T10:09:06;30.80;91.80
11569;DHT22;5840;46.894;15.542;2022-08-03T10:11:35;30.80;89.60
11569;DHT22;5840;46.894;15.542;2022-08-03T10:14:04;30.90;91.60
11569;DHT22;5840;46.894;15.542;2022-08-03T10:16:33;31.20;91.20
11569;DHT22;5840;46.894;15.542;2022-08-03T10:19:03;31.20;89.10
11569;DHT22;5840;46.894;15.542;2022-08-03T10:21:33;31.30;91.80
11569;DHT22;5840;46.894;15.542;2022-08-03T10:24:02;31.40;86.80
11569;DHT22;5840;46.894;15.542;2022-08-03T10:26:31;31.40;85.50
11569;DHT22;5840;46.894;15.542;2022-08-03T10:29:01;31.50;84.90
11569;DHT22;5840;46.894;15.542;2022-08-03T10:31:34;31.40;83.70
11569;DHT22;5840;46.894;15.542;2022-08-03T10:34:05;31.20;83.90
11569;DHT22;5840;46.894;15.542;2022-08-03T10:36:32;31.30;85.90
11569;DHT22;5840;46.894;15.542;2022-08-03T10:39:03;31.40;87.40
11569;DHT22;5840;46.894;15.542;2022-08-03T10:41:32;31.60;86.70
11569;DHT22;5840;46.894;15.542;2022-08-03T10:44:04;31.70;81.80
11569;DHT22;5840;46.894;15.542;2022-08-03T10:46:32;31.70;85.60
11569;DHT22;5840;46.894;15.542;2022-08-03T10:49:02;31.80;85.70
11569;DHT22;5840;46.894;15.542;2022-08-03T10:51:30;32.00;85.30
11569;DHT22;5840;46.894;15.542;2022-08-03T10:53:58;32.00;82.00
11569;DHT22;5840;46.894;15.542;2022-08-03T10:56:38;32.00;83.80
11569;DHT22;5840;46.894;15.542;2022-08-03T10:59:57;32.10;83.40
11569;DHT22;5840;46.894;15.542;2022-08-03T11:03:03;32.00;80.20
11569;DHT22;5840;46.894;15.542;2022-08-03T11:05:34;32.10;85.00
11569;DHT22;5840;46.894;15.542;2022-08-03T11:08:22;31.60;75.40
11569;DHT22;5840;46.894;15.542;2022-08-03T11:10:51;31.50;79.00
11569;DHT22;5840;46.894;15.542;2022-08-03T11:13:21;31.30;80.10
11569;DHT22;5840;46.894;15.542;2022-08-03T11:15:51;31.50;83.20
11569;DHT22;5840;46.894;15.542;2022-08-03T11:18:19;31.80;81.50
11569;DHT22;5840;46.894;15.542;2022-08-03T11:20:49;31.90;79.60
11569;DHT22;5840;46.894;15.542;2022-08-03T11:23:18;31.90;79.20
11569;DHT22;5840;46.894;15.542;2022-08-03T11:26:08;32.00;81.70
11569;DHT22;5840;46.894;15.542;2022-08-03T11:28:35;32.00;74.90
11569;DHT22;5840;46.894;15.542;2022-08-03T11:31:44;32.00;76.00
11569;DHT22;5840;46.894;15.542;2022-08-03T11:34:15;32.10;75.60
11569;DHT22;5840;46.894;15.542;2022-08-03T11:39:45;32.40;75.70
11569;DHT22;5840;46.894;15.542;2022-08-03T11:42:37;32.30;78.10
11569;DHT22;5840;46.894;15.542;2022-08-03T11:45:06;32.30;76.40
11569;DHT22;5840;46.894;15.542;2022-08-03T11:47:36;32.30;75.90
11569;DHT22;5840;46.894;15.542;2022-08-03T11:50:04;32.40;77.00
11569;DHT22;5840;46.894;15.542;2022-08-03T11:52:34;32.40;75.10
11569;DHT22;5840;46.894;15.542;2022-08-03T11:55:08;32.50;76.30
11569;DHT22;5840;46.894;15.542;2022-08-03T11:57:35;32.50;78.70
11569;DHT22;5840;46.894;15.542;2022-08-03T12:00:03;32.50;74.50
11569;DHT22;5840;46.894;15.542;2022-08-03T12:02:56;32.30;73.30
11569;DHT22;5840;46.894;15.542;2022-08-03T12:05:48;32.30;75.90
11569;DHT22;5840;46.894;15.542;2022-08-03T12:08:17;32.20;76.80
11569;DHT22;5840;46.894;15.542;2022-08-03T12:10:49;32.30;75.40
11569;DHT22;5840;46.894;15.542;2022-08-03T12:13:17;32.40;75.70
11569;DHT22;5840;46.894;15.542;2022-08-03T12:15:50;32.50;78.60
11569;DHT22;5840;46.894;15.542;2022-08-03T12:18:18;32.70;75.60
11569;DHT22;5840;46.894;15.542;2022-08-03T12:20:47;33.00;77.20
11569;DHT22;5840;46.894;15.542;2022-08-03T12:23:14;33.00;72.40
11569;DHT22;5840;46.894;15.542;2022-08-03T12:25:42;32.80;72.80
11569;DHT22;5840;46.894;15.542;2022-08-03T12:28:14;32.70;76.10
11569;DHT22;5840;46.894;15.542;2022-08-03T12:30:44;32.80;76.50
11569;DHT22;5840;46.894;15.542;2022-08-03T12:33:20;32.60;74.50
11569;DHT22;5840;46.894;15.542;2022-08-03T12:36:02;32.60;75.00
11569;DHT22;5840;46.894;15.542;2022-08-03T12:38:30;32.70;71.80
11569;DHT22;5840;46.894;15.542;2022-08-03T12:40:59;32.70;75.90
11569;DHT22;5840;46.894;15.542;2022-08-03T12:43:27;32.80;75.70
11569;DHT22;5840;46.894;15.542;2022-08-03T12:46:12;32.80;76.60
11569;DHT22;5840;46.894;15.542;2022-08-03T12:48:58;32.80;72.30
11569;DHT22;5840;46.894;15.542;2022-08-03T12:51:25;32.50;72.00
11569;DHT22;5840;46.894;15.542;2022-08-03T12:53:53;32.10;74.20
11569;DHT22;5840;46.894;15.542;2022-08-03T12:56:20;32.00;74.60
11569;DHT22;5840;46.894;15.542;2022-08-03T12:58:48;31.90;74.80
11569;DHT22;5840;46.894;15.542;2022-08-03T13:01:16;32.20;74.70
11569;DHT22;5840;46.894;15.542;2022-08-03T13:03:44;32.40;77.50
11569;DHT22;5840;46.894;15.542;2022-08-03T13:06:13;32.40;71.20
11569;DHT22;5840;46.894;15.542;2022-08-03T13:08:40;32.50;72.80
11569;DHT22;5840;46.894;15.542;2022-08-03T13:11:18;32.50;75.00
11569;DHT22;5840;46.894;15.542;2022-08-03T13:13:45;32.70;73.20
11569;DHT22;5840;46.894;15.542;2022-08-03T13:16:14;32.80;75.10
11569;DHT22;5840;46.894;15.542;2022-08-03T13:18:41;32.90;78.90
11569;DHT22;5840;46.894;15.542;2022-08-03T13:21:08;32.90;71.50
11569;DHT22;5840;46.894;15.542;2022-08-03T13:23:35;33.00;72.00
11569;DHT22;5840;46.894;15.542;2022-08-03T13:26:02;33.00;73.00
11569;DHT22;5840;46.894;15.542;2022-08-03T13:28:31;32.80;70.00
11569;DHT22;5840;46.894;15.542;2022-08-03T13:30:58;32.90;69.30
11569;DHT22;5840;46.894;15.542;2022-08-03T13:33:27;32.60;68.60
11569;DHT22;5840;46.894;15.542;2022-08-03T13:35:54;32.70;73.90
11569;DHT22;5840;46.894;15.542;2022-08-03T13:38:21;32.70;71.20
11569;DHT22;5840;46.894;15.542;2022-08-03T13:40:48;32.80;73.90
11569;DHT22;5840;46.894;15.542;2022-08-03T13:43:16;32.90;75.00
11569;DHT22;5840;46.894;15.542;2022-08-03T13:45:43;32.90;70.30
11569;DHT22;5840;46.894;15.542;2022-08-03T13:48:10;32.70;69.40
11569;DHT22;5840;46.894;15.542;2022-08-03T13:50:38;32.40;68.10
11569;DHT22;5840;46.894;15.542;2022-08-03T13:53:05;32.40;68.60
11569;DHT22;5840;46.894;15.542;2022-08-03T13:55:32;32.50;71.60
11569;DHT22;5840;46.894;15.542;2022-08-03T13:57:59;32.70;72.40
11569;DHT22;5840;46.894;15.542;2022-08-03T14:00:27;32.90;72.70
11569;DHT22;5840;46.894;15.542;2022-08-03T14:02:55;33.00;69.90
11569;DHT22;5840;46.894;15.542;2022-08-03T14:05:23;33.00;71.80
11569;DHT22;5840;46.894;15.542;2022-08-03T14:07:52;33.00;69.70
11569;DHT22;5840;46.894;15.542;2022-08-03T14:10:19;32.80;73.00
11569;DHT22;5840;46.894;15.542;2022-08-03T14:12:46;32.70;72.10
11569;DHT22;5840;46.894;15.542;2022-08-03T14:15:12;32.50;73.40
11569;DHT22;5840;46.894;15.542;2022-08-03T14:17:39;32.30;68.70
11569;DHT22;5840;46.894;15.542;2022-08-03T14:20:07;32.10;69.20
11569;DHT22;5840;46.894;15.542;2022-08-03T14:22:34;32.00;67.70
11569;DHT22;5840;46.894;15.542;2022-08-03T14:25:03;32.00;74.80
11569;DHT22;5840;46.894;15.542;2022-08-03T14:27:30;31.90;70.90
11569;DHT22;5840;46.894;15.542;2022-08-03T14:29:57;31.80;69.50
11569;DHT22;5840;46.894;15.542;2022-08-03T14:32:26;31.60;72.60
11569;DHT22;5840;46.894;15.542;2022-08-03T14:34:52;31.50;70.30
11569;DHT22;5840;46.894;15.542;2022-08-03T14:37:19;31.50;69.80
11569;DHT22;5840;46.894;15.542;2022-08-03T14:39:46;31.50;73.30
11569;DHT22;5840;46.894;15.542;2022-08-03T14:42:15;31.50;69.70
11569;DHT22;5840;46.894;15.542;2022-08-03T14:44:42;31.50;70.60
11569;DHT22;5840;46.894;15.542;2022-08-03T14:47:09;31.60;69.40
11569;DHT22;5840;46.894;15.542;2022-08-03T14:49:35;31.70;71.60
11569;DHT22;5840;46.894;15.542;2022-08-03T14:52:03;31.70;71.30
11569;DHT22;5840;46.894;15.542;2022-08-03T14:54:30;31.70;71.70
11569;DHT22;5840;46.894;15.542;2022-08-03T14:56:57;31.70;74.90
11569;DHT22;5840;46.894;15.542;2022-08-03T14:59:26;31.70;71.90
11569;DHT22;5840;46.894;15.542;2022-08-03T15:01:53;31.50;71.60
11569;DHT22;5840;46.894;15.542;2022-08-03T15:04:20;31.50;73.40
11569;DHT22;5840;46.894;15.542;2022-08-03T15:06:47;31.30;71.00
11569;DHT22;5840;46.894;15.542;2022-08-03T15:09:14;31.20;69.50
11569;DHT22;5840;46.894;15.542;2022-08-03T15:11:41;31.00;70.00
11569;DHT22;5840;46.894;15.542;2022-08-03T15:14:08;31.00;73.10
11569;DHT22;5840;46.894;15.542;2022-08-03T15:16:37;31.00;76.20
11569;DHT22;5840;46.894;15.542;2022-08-03T15:19:04;30.90;72.50
11569;DHT22;5840;46.894;15.542;2022-08-03T15:21:31;30.90;71.40
11569;DHT22;5840;46.894;15.542;2022-08-03T15:23:58;30.80;73.20
11569;DHT22;5840;46.894;15.542;2022-08-03T15:26:25;30.70;73.30
11569;DHT22;5840;46.894;15.542;2022-08-03T15:28:52;30.60;72.60
11569;DHT22;5840;46.894;15.542;2022-08-03T15:31:20;30.60;78.80
11569;DHT22;5840;46.894;15.542;2022-08-03T15:33:49;30.40;76.30
11569;DHT22;5840;46.894;15.542;2022-08-03T15:36:16;30.40;76.50
11569;DHT22;5840;46.894;15.542;2022-08-03T15:38:43;30.20;76.70
11569;DHT22;5840;46.894;15.542;2022-08-03T15:41:11;30.10;76.60
11569;DHT22;5840;46.894;15.542;2022-08-03T15:43:38;30.10;75.70
11569;DHT22;5840;46.894;15.542;2022-08-03T15:46:06;30.00;76.40